Regionale Übersicht

METAR et TAF

Samedi 04 juillet 2020 à 20h35

Visibilités horizontales observées à différents aéroports. Les observations (METAR) et prévisions aéronautiques (TAF) complètes sont disponibles en cliquant sur l’icône correspondante.

  • Luxemburg (ELLX)

    Taf: TAF ELLX 041700Z 0418/0524 23012G22KT 9999 BKN030 BECMG 0419/0421 23008KT BKN015 TEMPO 0422/0507 7000 -DZ BKN008 TEMPO 0509/0516 23015G25KT SCT020=

    Metar: METAR ELLX 041820Z 22010KT 9999 BKN037 21/13 Q1018 NOSIG=

  • Spangdahlem (ETAD)

    Taf: TAF ETAD 040700Z 0407/0513 22009KT 9999 SCT100 QNH3009INS BECMG 0409/0410 22012G25KT 9999 BKN070 520005 QNH3003INS BECMG 0419/0420 23012G20KT 9000 -SHRA SCT020 BKN040 510004 QNH2998INS BECMG 0501/0502 24010G15KT 9000 -SHRA BKN008 QNH2999INS TX23/0415Z TN13/0507Z LAST NO AMDS AFT 0407 NEXT 0704=

    Metar: METAR ETAD 041756Z AUTO 22013G17KT 9999 BKN035 20/12 A3004 RMK AO2 SLP157 T02040121 10220 20200 57006 CHINO RWY05 $=

  • Metz/Nancy (LFJL)

    Taf: TAF LFJL 041700Z 0418/0518 24010KT 9999 BKN050 PROB30 TEMPO 0507/0510 BKN013 BECMG 0510/0512 25015G28KT=

    Metar: METAR LFJL 041800Z AUTO 24014KT CAVOK 24/12 Q1018 NOSIG=

  • Saarbrücken/Intl (EDDR)

    Taf: TAF EDDR 041700Z 0418/0518 24013KT CAVOK PROB40 TEMPO 0418/0420 23015G25KT BECMG 0419/0422 23008KT TEMPO 0502/0509 BKN012 BECMG 0507/0509 25015G30KT=

    Metar: METAR EDDR 041820Z 25011KT 9999 BKN045 22/11 Q1018 NOSIG=

  • Hahn (EDFH)

    Taf: TAF EDFH 041700Z 0418/0518 25013KT 9999 FEW040 PROB40 TEMPO 0418/0420 25015G30KT TEMPO 0423/0511 BKN012 PROB30 TEMPO 0503/0508 4000 -DZ BKN007 BECMG 0506/0509 25015G30KT=

    Metar: METAR EDFH 041820Z 24010KT 210V270 9999 BKN035 20/12 Q1018=

  • Ramstein (ETAR)

    Taf: TAF ETAR 041800Z 0418/0524 24012KT 9999 BKN040 QNH3004INS BECMG 0423/0424 24012G20KT 9999 BKN020 510004 QNH3001INS TEMPO 0505/0508 BKN015 BECMG 0510/0511 24015G25KT 9999 SCT020 BKN030 520004 QNH2998INS BECMG 0519/0520 25010G15KT 9000 -SHRA BKN020 510004 QNH2998INS TX26/0515Z TN16/0504Z=

    Metar: METAR ETAR 041756Z AUTO 24010KT 9999 SCT055 24/11 A3004 RMK AO2 SLP169 T02350112 10260 20229 57006 FZRANO $=

  • Nancy/Ochey (LFSO)

    Taf: TAF LFSO 041400Z NIL=

    Metar: METAR LFSO 041800Z AUTO 24013KT CAVOK 23/12 Q1019=

  • Liège Bierset (EBLG)

    Taf: TAF EBLG 041710Z 0418/0524 22013KT 9999 SCT015 BKN020 BECMG 0421/0423 SCT008 BKN012 TEMPO 0421/0515 4000 DZRA SCT004 BKN006 TEMPO 0506/0519 23018G30KT BECMG 0515/0517 SCT025=

    Metar: METAR EBLG 041820Z 22015KT 9999 -DZ FEW014 BKN020 BKN040 19/16 Q1015 NOSIG=

  • Saint-Dizier (LFSI)

    Taf: TAF LFSI 041400Z 0415/0515 23010KT CAVOK BECMG 0422/0424 BKN014 TEMPO 0512/0515 22015G25KT=

    Metar: METAR LFSI 041800Z AUTO 25011KT 9999 OVC045 24/14 Q1018=

  • Maastricht/Zuid Limburg (EHBK)

    Taf: TAF EHBK 041704Z 0418/0524 22015KT 9999 BKN025 PROB30 TEMPO 0418/0424 4000 -DZRA BECMG 0423/0502 BKN012 PROB30 TEMPO 0500/0508 4000 -DZRA BKN008 BECMG 0508/0509 24017G29KT BKN018 BECMG 0521/0523 23012KT=

    Metar: METAR EHBK 041825Z AUTO 22014KT 9999 +DZ FEW012 SCT022 BKN025 19/16 Q1014 NOSIG=

  • Köln/Köln-Bonn (EDDK)

    Taf: TAF EDDK 041700Z 0418/0524 23009KT 9999 BKN040 BECMG 0507/0509 24015G25KT PROB30 TEMPO 0509/0514 24020G30KT PROB30 TEMPO 0514/0517 26020G35KT BECMG 0517/0520 26010KT=

    Metar: METAR EDDK 041820Z 22011KT 9999 VCSH BKN039 22/13 Q1015 NOSIG=

  • Charleroi (EBCI)

    Taf: TAF EBCI 041710Z 0418/0524 22013KT 9999 SCT015 BKN018 BECMG 0420/0422 SCT008 BKN012 TEMPO 0420/0515 4000 DZRA SCT004 BKN006 TEMPO 0506/0519 23018G30KT BECMG 0515/0517 SCT025=

    Metar: METAR EBCI 041820Z 21015KT 9999 BKN018 19/16 Q1015 NOSIG=

  • Wiesbaden (ETOU)

    Taf: nil

    Metar: METAR ETOU 041756Z AUTO 26014G20KT 9999 BKN060 OVC085 25/10 A3000 RMK AO2 SLP157 T02480099 10263 20239 55003 $=

  • Karlsruhe/Baden-Baden (EDSB)

    Taf: TAF EDSB 041700Z 0418/0518 21007KT 9999 FEW030 BECMG 0505/0507 22012KT=

    Metar: METAR EDSB 041820Z 22005KT 190V250 CAVOK 25/12 Q1018=

  • Chalons/Vatry (LFOK)

    Taf: TAF LFOK 041700Z 0418/0518 23015KT 9999 SCT040 BKN060 TEMPO 0418/0420 23017G27KT BECMG 0504/0507 OVC013 PROB30 0507/0511 3000 DZ OVC007 BECMG 0511/0513 BKN025=

    Metar: METAR LFOK 041800Z AUTO 23014KT 9999 SCT039 BKN054 OVC070 22/15 Q1018 TEMPO 23017G27KT=

  • Frankfurt/Main (EDDF)

    Taf: TAF EDDF 041700Z 0418/0524 22013KT CAVOK PROB40 TEMPO 0418/0420 23015G25KT BECMG 0420/0423 23008KT BKN035 BECMG 0506/0509 23015G30KT BECMG 0519/0521 22010KT=

    Metar: METAR EDDF 041820Z 23015KT CAVOK 25/10 Q1016 NOSIG=

  • Brüssel (EBBR)

    Taf: TAF EBBR 041706Z 0418/0524 22013KT 9999 SCT015 BKN018 BECMG 0419/0421 SCT008 BKN012 TEMPO 0419/0513 4000 DZRA SCT005 BKN007 TEMPO 0506/0519 23018G30KT BECMG 0513/0515 SCT025=

    Metar: METAR EBBR 041820Z 22013G23KT 9999 BKN019 20/16 Q1014 TEMPO 4000 RADZ BKN012=

  • Düsseldorf (EDDL)

    Taf: TAF EDDL 041700Z 0418/0524 23015G25KT 9999 BKN035 BECMG 0418/0420 22014KT TEMPO 0502/0508 BKN010 BECMG 0503/0506 23015G25KT BECMG 0506/0509 23020G30KT TEMPO 0509/0517 24025G35KT BECMG 0517/0520 25012KT=

    Metar: METAR EDDL 041820Z 23015KT 9999 -RA FEW020 BKN030 20/16 Q1014 NOSIG=

  • Luxeuil (LFSX)

    Taf: TAF LFSX 041400Z NIL=

    Metar: METAR LFSX 041800Z AUTO 22007KT CAVOK 24/11 Q1020=

  • Eindhoven (EHEH)

    Taf: TAF EHEH 041719Z 0418/0524 23014G24KT 9999 SCT018 OVC025 TEMPO 0418/0421 FEW018 BKN025 PROB40 TEMPO 0418/0423 4000 -DZRA FEW007 BKN010 OVC015 BECMG 0423/0501 SCT010 OVC012 TEMPO 0500/0507 3000 DZ SCT006 BKN010 BECMG 0503/0506 23017G28KT TEMPO 0506/0512 23018G33KT FEW010 BKN015 BECMG 0515/0517 FEW020 BKN030 BECMG 0519/0521 24014KT=

    Metar: METAR EHEH 041825Z AUTO 20010KT 170V240 9999 BKN019 OVC023 19/16 Q1012 WHT 23014G24KT 9999 SCT015 BKN020 TEMPO 4000 DZRA FEW007 SCT010 BKN015=

  • Niederrhein (EDLV)

    Taf: TAF EDLV 041700Z 0418/0518 23012KT 9999 BKN025 PROB30 TEMPO 0418/0501 4000 -RADZ BECMG 0420/0423 BKN012 TEMPO 0423/0507 BKN006 BECMG 0505/0508 23015G25KT BECMG 0507/0510 BKN025 TEMPO 0508/0512 24020G30KT TEMPO 0512/0517 25020G35KT=

    Metar: METAR EDLV 041820Z 22014KT 200V260 CAVOK 19/16 Q1013=

  • Dortmund/Wickede (EDLW)

    Taf: TAF EDLW 041700Z 0418/0518 22014KT 9999 BKN035 TEMPO 0502/0508 BKN012 BECMG 0505/0508 23015G25KT BECMG 0508/0511 24020G30KT=

    Metar: METAR EDLW 041820Z 22012KT 9999 OVC035 21/15 Q1013=

  • Stuttgart/Echterdingen (EDDS)

    Taf: TAF EDDS 041700Z 0418/0518 25008KT CAVOK BECMG 0418/0421 23003KT BECMG 0507/0509 24009KT BECMG 0510/0513 25015G25KT=

    Metar: METAR EDDS 041820Z 25006KT 210V280 CAVOK 23/11 Q1018 NOSIG=

  • Basel-Mühlhausen (LFSB)

    Taf: TAF LFSB 041700Z 0418/0518 26006KT CAVOK=

    Metar: METAR LFSB 041800Z AUTO 29006KT CAVOK 24/11 Q1020 NOSIG=

  • Lille (LFQQ)

    Taf: TAF LFQQ 041700Z 0418/0524 23013KT 9999 SCT013 OVC020 TEMPO 0418/0420 23015G25KT 3000 RA OVC013 TEMPO 0420/0513 23018G28KT 3000 DZRA OVC005 FM051300 25017G30KT 9999 SCT020 FM052100 25015G25KT 9999 SCT020=

    Metar: METAR LFQQ 041800Z AUTO 21016G27KT 9999 BKN015 OVC020 20/17 Q1014 TEMPO 3000 RA OVC013=

  • Paris/Charles de Gaulle (LFPG)

    Taf: TAF LFPG 041700Z 0418/0524 23012KT 9999 BKN030 TX25/0512Z TN16/0523Z TEMPO 0418/0421 24015G25KT BECMG 0422/0424 BKN013 PROB30 TEMPO 0500/0506 4000 -DZ BKN009 BECMG 0507/0509 BKN025 TEMPO 0509/0522 25015G25KT=

    Metar: METAR LFPG 041800Z 23016KT 210V270 9999 BKN030 22/15 Q1018 TEMPO 24015G25KT=

  • Paderborn/Lippstadt (EDLP)

    Taf: TAF EDLP 041700Z 0418/0518 23012KT 9999 BKN035 BECMG 0505/0508 23015G25KT TEMPO 0508/0517 24020G30KT=

    Metar: METAR EDLP 041820Z 21010KT 9999 BKN048 20/14 Q1014=

  • Paris/Le Bourget (LFPB)

    Taf: TAF LFPB 041700Z 0418/0518 23012KT 9999 BKN030 TEMPO 0418/0421 24015G25KT BECMG 0422/0424 BKN013 PROB30 TEMPO 0500/0506 4000 -DZ BKN009 BECMG 0506/0508 BKN025 TEMPO 0509/0518 25015G25KT=

    Metar: METAR LFPB 041800Z AUTO 23013KT 9999 OVC032 22/15 Q1018 TEMPO 24015G25KT=

  • Rotterdam (EHRD)

    Taf: TAF EHRD 041634Z 0418/0524 23015KT 3500 -DZ SCT007 BKN009 TEMPO 0418/0510 9999 NSW BKN015 BECMG 0502/0505 23020G32KT TEMPO 0506/0514 23025G37KT BECMG 0510/0513 9999 NSW SCT015 BKN020 BECMG 0518/0521 24015KT=

    Metar: METAR EHRD 041825Z AUTO 23016KT 4700 -SHRA FEW008 SCT010 BKN013 18/17 Q1010 REDZ TEMPO BKN008=

  • Zürich/Kloten (LSZH)

    Taf: TAF LSZH 041725Z 0418/0524 VRB03KT CAVOK TX28/0515Z TN13/0504Z BECMG 0509/0512 24005KT 9999 FEW040 TEMPO 0511/0517 29010KT=

    Metar: METAR LSZH 041820Z 31006KT CAVOK 21/12 Q1020 NOSIG=

  • Oostende/Intl (EBOS)

    Taf: TAF EBOS 041710Z 0418/0524 23018KT 9999 SCT010 BKN012 TEMPO 0418/0510 4000 DZRA SCT006 BKN008 TEMPO 0506/0519 24023G36KT BECMG 0511/0513 SCT030=

    Metar: METAR EBOS 041820Z 23014KT 6000 -RADZ FEW006 SCT008 BKN012 17/16 Q1012 TEMPO 23020G30KT 2500 DZRA SCT006 BKN008=

  • Paris/Orly (LFPO)

    Taf: TAF LFPO 041700Z 0418/0524 23012KT 9999 BKN030 TEMPO 0418/0421 24015G25KT BECMG 0421/0424 BKN012 TEMPO 0500/0508 BKN006 PROB40 TEMPO 0502/0507 2500 -RADZ BKN004 BECMG 0509/0512 25015G25KT BKN030 PROB40 TEMPO 0514/0517 -RA BKN025 BECMG 0517/0519 27010KT CAVOK=

    Metar: METAR LFPO 041800Z 24012KT 200V260 9999 OVC031 22/15 Q1018 NOSIG=

  • Beauvais (LFOB)

    Taf: TAF LFOB 041700Z 0418/0518 24012KT 9999 OVC020 TEMPO 0419/0421 24015G25KT OVC013 BECMG 0421/0423 SCT007 OVC013 TEMPO 0423/0515 2000 DZRA OVC005 PROB30 0510/0514 25017G27KT FM051500 27015G25KT 9999 SCT020=

    Metar: METAR LFOB 041800Z AUTO 23013KT 9999 OVC025 21/16 Q1016 TEMPO 24015G25KT OVC013=

  • Münster/Intl (EDDG)

    Taf: TAF EDDG 041700Z 0418/0518 22012KT 9999 BKN030 PROB30 TEMPO 0419/0501 4000 -RADZ BECMG 0421/0424 BKN012 TEMPO 0500/0506 BKN006 BECMG 0506/0509 23015G30KT BKN025 TEMPO 0509/0517 24020G35KT=

    Metar: METAR EDDG 041820Z 22011KT 9999 FEW024 BKN027 20/15 Q1012 NOSIG=

  • Illesheim (ETIK)

    Taf: nil

    Metar: METAR ETIK 041756Z AUTO 24007KT 9999 BKN080 BKN180 23/10 A3006 RMK AO2 SLP170 T02340104 10263 20231 55001 FZRANO $=

  • Duebendorf (LSMD)

    Taf: TAF LSMD 041625Z 0417/0523 29006KT CAVOK PROB40 TEMPO 0500/0506 9999 SCT060 BECMG 0510/0513 9999 FEW040 TEMPO 0512/0518 31010KT=

    Metar: METAR LSMD 041820Z AUTO 30007KT 260V320 9999NDV NCD 23/11 Q1020 RMK=

  • Villacoublay (LFPV)

    Taf: TAF LFPV 041400Z 0415/0515 24012KT 9999 BKN031 OVC052 PROB30 TEMPO 0415/0418 24012G23KT BECMG 0422/0424 BKN008 TEMPO 0504/0506 BKN004 BECMG 0507/0509 BKN016 TEMPO 0509/0515 34012G23KT=

    Metar: METAR LFPV 041800Z AUTO 24013KT 200V280 9999 OVC027 21/15 Q1018 NOSIG=

  • Payerne (LSMP)

    Taf: TAF LSMP 041625Z 0417/0523 20005KT CAVOK=

    Metar: METAR LSMP 041820Z AUTO 28005KT 250V320 9999NDV NCD 24/11 Q1020 RMK=

  • Amsterdam/Schipol (EHAM)

    Taf: TAF EHAM 041634Z 0418/0524 23018G30KT 3500 -DZ BR SCT007 BKN009 TEMPO 0418/0510 9999 NSW BKN015 BECMG 0418/0420 26016KT BECMG 0502/0505 23020G32KT TEMPO 0506/0515 23025G37KT BECMG 0510/0513 9999 NSW SCT015 BKN020 BECMG 0518/0521 24015KT=

    Metar: METAR EHAM 041825Z 24021KT 200V260 7000 -DZRA FEW007 SCT009 BKN011 18/16 Q1010 TEMPO 4000 BKN008=

  • Emmen (LSME)

    Taf: TAF LSME 041625Z 0417/0523 VRB03KT CAVOK PROB40 TEMPO 0500/0506 9999 SCT070 BECMG 0512/0515 9999 SCT060=

    Metar: METAR LSME 041820Z AUTO VRB02KT 9999NDV NCD 24/11 Q1021 RMK=

  • Friedrichshafen (EDNY)

    Taf: TAF EDNY 041700Z 0418/0518 26005KT CAVOK BECMG 0418/0420 VRB02KT BECMG 0507/0509 23005KT BECMG 0509/0511 25010KT=

    Metar: METAR EDNY 041820Z AUTO 21003KT 180V270 9999 // NCD 22/13 Q1020=

  • Alpnach (LSMA)

    Taf: TAF LSMA 041625Z 0417/0523 02004KT 9999 FEW055 BECMG 0417/0419 CAVOK BECMG 0512/0515 9999 SCT060=

    Metar: METAR LSMA 041820Z AUTO 00000KT 9999NDV FEW070 21/15 Q1021 RMK=

  • Meiringen (LSMM)

    Taf: TAF LSMM 041625Z 0417/0523 27005KT 9999 FEW060 BECMG 0417/0419 CAVOK BECMG 0512/0515 9999 SCT060=

    Metar: METAR LSMM 041820Z AUTO 25004KT 210V290 9999NDV BKN059 BKN067 22/14 Q1021 RMK=

  • Nürnberg (EDDN)

    Taf: TAF EDDN 041700Z 0418/0518 26006KT CAVOK BECMG 0420/0422 20003KT BECMG 0423/0501 14005KT BECMG 0506/0508 22008KT BECMG 0508/0510 25015G25KT BECMG 0516/0518 26009KT=

    Metar: METAR EDDN 041820Z 28006KT CAVOK 23/11 Q1017 NOSIG=

  • Rouen (LFOP)

    Taf: TAF LFOP 041700Z 0418/0518 23013KT 9999 OVC017 BECMG 0418/0420 SCT007 OVC013 TEMPO 0420/0514 2000 DZRA OVC004 FM051400 27015G25KT 9999 BKN013 BECMG 0514/0516 27012KT SCT025=

    Metar: METAR LFOP 041800Z AUTO 22013KT 9999 OVC014 19/17 Q1017 NOSIG=

  • Evreux (LFOE)

    Taf: TAF LFOE 041600Z 0416/0515 CNL=

    Metar: METAR LFOE 041800Z AUTO 22016KT 9999 OVC019 20/16 Q1017=

  • Erfurt/Bindersleben (EDDE)

    Taf: TAF EDDE 041700Z 0418/0518 23010G20KT CAVOK BECMG 0507/0510 24020G30KT BECMG 0514/0516 24015G25KT=

    Metar: METAR EDDE 041820Z 22010KT CAVOK 22/11 Q1015 NOSIG=